Donaldsonville, LA (70346)

12:58 AM CDT on August 29, 2014 (GMT -0500)
Geismar - Air Liquide | Change Station
CLOSE
Current Station
Personal Weather Station
Location: Geismar, LA
Elevation: 0 ft
Nearby Weather Stations

Elev 0 ft 30.21 °N, 90.99 °W | Updated 3 seconds ago

Clear
Clear
78.2 °F
Feels Like 81 °F
N
0.0
Wind Variable Wind from SE
Gusts 0.0 mph

Today
High -- | Low -- °F
--% Chance of Precip.
Yesterday
High -- | Low -- °F
Precip. -- in
6:39 AM 7:30 PM
Waxing Crescent, 12% visible
Pressure 29.96 in
Visibility 10.0 miles
Clouds Clear
Heat Index 81 °F
Dew Point 74 °F
Humidity 87%
Rainfall 0.00 in
Snow Depth Not available.
UV 0.0 out of 12
Pollen 7.90 out of 12
Air Quality Not available.
Flu Activity Not available.
METAR KL38 290535Z AUTO 00000KT 10SM CLR 24/24 A2996 RMK AO2 T02440244

More Conditions Fewer Conditions

Pressure 29.96 in
Visibility 10.0 miles
Clouds Clear
Heat Index 81 °F
Dew Point 74 °F
Humidity 87%
Rainfall 0.00 in
Snow Depth Not available.
UV 0.0 out of 12
Pollen 7.90 out of 12
Air Quality Not available.
Flu Activity Not available.
METAR KL38 290535Z AUTO 00000KT 10SM CLR 24/24 A2996 RMK AO2 T02440244

More Conditions Fewer Conditions

10-Day Weather Forecast

Almanac

Astronomy

Aug. 29, 2014 Rise Set
Actual Time 6:39 AM CDT 7:30 PM CDT
Civil Twilight 6:14 AM CDT 7:54 PM CDT
Nautical Twilight 5:45 AM CDT 8:23 PM CDT
Astronomical Twilight 5:16 AM CDT 8:52 PM CDT
Moon 10:09 AM CDT 9:48 PM CDT
Length of Visible Light 13h 39m
Length of Day
12h 50m
Tomorrow will be 1m 43s shorter.
Waxing Crescent, 12% of the Moon is Illuminated
Today
Waxing Crescent
Sep 2
First Quarter
Sep 8
Full
Sep 15
Last Quarter
Sep 24
New

Today's Extremes

State Highs State Lows

Community

WunderPhotos

Upload Photos

1,748,197 photos uploaded!

Nearby

Snow Depth

Station Depth Elevation
No new snow has been reported.

Earthquake Activity

City Distance Mag. Time & Date
No recent earthquake activity has been reported nearby.
Minimum magnitude displayed is 2.5.

Coastal Water Temperatures

Place Temperature
New Canal, LA 84.0 °F
Shell Beach, LA 82.0 °F
Bayou Gauche, LA 86.0 °F

Nearby Weather Stations